createdAt,value
2023-01-19T00:02:02.418Z,-0.10
2023-01-19T00:04:34.110Z,-0.11
2023-01-19T00:07:05.829Z,-0.15
2023-01-19T00:09:38.384Z,-0.20
2023-01-19T00:12:10.468Z,-0.23
2023-01-19T00:14:42.198Z,-0.26
2023-01-19T00:17:13.932Z,-0.25
2023-01-19T00:19:45.653Z,-0.22
2023-01-19T00:22:17.552Z,-0.20
2023-01-19T00:24:50.395Z,-0.18
2023-01-19T00:27:22.095Z,-0.17
2023-01-19T00:29:53.819Z,-0.15
2023-01-19T00:32:25.511Z,-0.14
2023-01-19T00:34:57.233Z,-0.13
2023-01-19T00:37:28.982Z,-0.12
2023-01-19T00:40:00.741Z,-0.11
2023-01-19T00:42:41.476Z,-0.09
2023-01-19T00:45:15.729Z,-0.09
2023-01-19T00:47:47.976Z,-0.09
2023-01-19T00:50:19.882Z,-0.09
2023-01-19T00:52:53.122Z,-0.08
2023-01-19T00:55:24.873Z,-0.09
2023-01-19T00:57:57.092Z,-0.11
2023-01-19T01:00:29.108Z,-0.12
2023-01-19T01:03:01.565Z,-0.14
2023-01-19T01:05:33.555Z,-0.15
2023-01-19T01:08:05.565Z,-0.15
2023-01-19T01:10:37.271Z,-0.17
2023-01-19T01:13:23.704Z,-0.18
2023-01-19T01:15:58.208Z,-0.19
2023-01-19T01:18:30.953Z,-0.18
2023-01-19T01:21:07.377Z,-0.23
2023-01-19T01:23:39.136Z,-0.26
2023-01-19T01:26:10.905Z,-0.25
2023-01-19T01:28:42.616Z,-0.23
2023-01-19T01:31:14.407Z,-0.20
2023-01-19T01:33:46.156Z,-0.20
2023-01-19T01:36:18.967Z,-0.18
2023-01-19T01:38:50.999Z,-0.19
2023-01-19T01:41:25.468Z,-0.17
2023-01-19T01:44:01.628Z,-0.15
2023-01-19T01:46:34.074Z,-0.15
2023-01-19T01:49:09.235Z,-0.20
2023-01-19T01:51:47.022Z,-0.15
2023-01-19T01:54:22.602Z,-0.14
2023-01-19T01:56:58.299Z,-0.13
2023-01-19T01:59:34.861Z,-0.14
2023-01-19T02:02:26.494Z,-0.16
2023-01-19T02:05:04.167Z,-0.18
2023-01-19T02:08:03.112Z,-0.21
2023-01-19T02:10:52.787Z,-0.23
2023-01-19T02:13:25.569Z,-0.23
2023-01-19T02:16:00.839Z,-0.24
2023-01-19T02:18:33.769Z,-0.24
2023-01-19T02:21:12.174Z,-0.24
2023-01-19T02:23:47.002Z,-0.22
2023-01-19T02:26:23.168Z,-0.20
2023-01-19T02:28:59.445Z,-0.19
2023-01-19T02:31:33.651Z,-0.19
2023-01-19T02:34:07.091Z,-0.18
2023-01-19T02:36:39.699Z,-0.15
2023-01-19T02:39:12.216Z,-0.13
2023-01-19T02:41:49.722Z,-0.13
2023-01-19T02:44:23.633Z,-0.15
2023-01-19T02:46:57.817Z,-0.19
2023-01-19T02:49:31.771Z,-0.20
2023-01-19T02:52:04.428Z,-0.18
2023-01-19T02:54:47.776Z,-0.17
2023-01-19T02:57:43.660Z,-0.18
2023-01-19T03:00:26.458Z,-0.18
2023-01-19T03:03:15.621Z,-0.16
2023-01-19T03:06:04.870Z,-0.16
2023-01-19T03:08:49.506Z,-0.16
2023-01-19T03:11:24.772Z,-0.16
2023-01-19T03:14:01.745Z,-0.15
2023-01-19T03:16:40.713Z,-0.14
2023-01-19T03:19:19.119Z,-0.12
2023-01-19T03:21:56.120Z,-0.10
2023-01-19T03:24:30.735Z,-0.09
2023-01-19T03:27:06.668Z,-0.07
2023-01-19T03:29:42.606Z,-0.05
2023-01-19T03:32:18.401Z,-0.03
2023-01-19T03:34:52.521Z,-0.01
2023-01-19T03:37:26.736Z,0.00
2023-01-19T03:39:58.774Z,-0.01
2023-01-19T03:42:31.200Z,-0.01
2023-01-19T03:45:03.912Z,-0.01
2023-01-19T03:47:36.530Z,-0.00
2023-01-19T03:50:14.692Z,0.00
2023-01-19T03:52:46.392Z,-0.05
2023-01-19T03:55:18.126Z,-0.06
2023-01-19T03:57:49.816Z,-0.05
2023-01-19T04:00:22.130Z,-0.03
2023-01-19T04:02:53.940Z,-0.03
2023-01-19T04:05:26.278Z,-0.07
2023-01-19T04:07:58.247Z,-0.08
2023-01-19T04:10:29.978Z,-0.07
2023-01-19T04:13:02.860Z,-0.06
2023-01-19T04:15:35.007Z,-0.07
2023-01-19T04:18:07.245Z,-0.08
2023-01-19T04:20:39.816Z,-0.09
2023-01-19T04:23:11.597Z,-0.05
2023-01-19T04:25:43.262Z,-0.01
2023-01-19T04:28:15.649Z,-0.02
2023-01-19T04:30:50.772Z,-0.07
2023-01-19T04:33:23.364Z,-0.06
2023-01-19T04:35:56.127Z,-0.01
2023-01-19T04:38:28.331Z,0.00
2023-01-19T04:41:00.052Z,-0.01
2023-01-19T04:43:31.834Z,0.01
2023-01-19T04:46:03.651Z,0.02
2023-01-19T04:48:35.745Z,0.03
2023-01-19T04:51:08.508Z,0.06
2023-01-19T04:53:40.229Z,0.07
2023-01-19T04:56:12.424Z,0.10
2023-01-19T04:58:44.277Z,0.12
2023-01-19T05:01:16.004Z,0.13
2023-01-19T05:03:47.703Z,0.15
2023-01-19T05:06:19.544Z,0.14
2023-01-19T05:08:51.463Z,0.14
2023-01-19T05:11:23.142Z,0.14
2023-01-19T05:13:54.954Z,0.15
2023-01-19T05:16:26.732Z,0.16
2023-01-19T05:18:58.616Z,0.18
2023-01-19T05:21:30.921Z,0.20
2023-01-19T05:24:02.870Z,0.20
2023-01-19T05:26:34.583Z,0.20
2023-01-19T05:29:06.231Z,0.21
2023-01-19T05:31:38.316Z,0.22
2023-01-19T05:34:12.026Z,0.22
2023-01-19T05:36:43.956Z,0.22
2023-01-19T05:39:15.991Z,0.22
2023-01-19T05:41:47.790Z,0.24
2023-01-19T05:44:19.531Z,0.28
2023-01-19T05:46:51.357Z,0.30
2023-01-19T05:49:23.081Z,0.29
2023-01-19T05:51:54.798Z,0.28
2023-01-19T05:54:26.679Z,0.28
2023-01-19T05:56:58.452Z,0.28
2023-01-19T05:59:30.343Z,0.29
2023-01-19T06:02:02.174Z,0.29
2023-01-19T06:04:34.125Z,0.29
2023-01-19T06:07:06.457Z,0.31
2023-01-19T06:09:38.230Z,0.31
2023-01-19T06:12:10.364Z,0.29
2023-01-19T06:14:42.160Z,0.26
2023-01-19T06:17:13.864Z,0.25
2023-01-19T06:19:45.577Z,0.25
2023-01-19T06:22:17.448Z,0.25
2023-01-19T06:24:49.134Z,0.21
2023-01-19T06:27:20.849Z,0.24
2023-01-19T06:29:52.530Z,0.26
2023-01-19T06:32:24.213Z,0.26
2023-01-19T06:34:55.977Z,0.25
2023-01-19T06:37:28.620Z,0.25
2023-01-19T06:40:00.636Z,0.24
2023-01-19T06:42:32.569Z,0.25
2023-01-19T06:45:04.869Z,0.27
2023-01-19T06:47:36.678Z,0.28
2023-01-19T06:50:10.806Z,0.29
2023-01-19T06:52:42.817Z,0.31
2023-01-19T06:55:16.285Z,0.28
2023-01-19T06:57:48.068Z,0.24
2023-01-19T07:00:21.991Z,0.20
2023-01-19T07:02:53.876Z,0.19
2023-01-19T07:05:25.661Z,0.18
2023-01-19T07:07:58.481Z,0.21
2023-01-19T07:11:25.464Z,0.24
2023-01-19T07:13:21.962Z,0.27
2023-01-19T07:15:53.902Z,0.31
2023-01-19T07:18:25.711Z,0.36
2023-01-19T07:20:59.739Z,0.37
2023-01-19T07:23:31.778Z,0.37
2023-01-19T07:26:03.973Z,0.39
2023-01-19T07:28:36.996Z,0.41
2023-01-19T07:31:09.753Z,0.43
2023-01-19T07:33:41.560Z,0.46
2023-01-19T07:36:14.643Z,0.46
2023-01-19T07:38:46.593Z,0.49
2023-01-19T07:41:18.423Z,0.53
2023-01-19T07:43:52.719Z,0.58
2023-01-19T07:46:24.474Z,0.61
2023-01-19T07:48:56.348Z,0.63
2023-01-19T07:51:28.045Z,0.66
2023-01-19T07:53:59.762Z,0.70
2023-01-19T07:56:33.879Z,0.73
2023-01-19T07:59:07.386Z,0.74
2023-01-19T08:01:39.241Z,0.76
2023-01-19T08:04:11.560Z,0.77
2023-01-19T08:06:46.244Z,0.78
2023-01-19T08:09:18.132Z,0.79
2023-01-19T08:11:49.909Z,0.83
2023-01-19T08:14:21.716Z,0.87
2023-01-19T08:16:53.430Z,0.93
2023-01-19T08:19:25.219Z,0.98
2023-01-19T08:21:58.860Z,1.02
2023-01-19T08:24:31.566Z,1.06
2023-01-19T08:27:04.180Z,1.13
2023-01-19T08:29:35.866Z,1.18
2023-01-19T08:32:08.252Z,1.22
2023-01-19T08:34:40.048Z,1.28
2023-01-19T08:37:11.827Z,1.30
2023-01-19T08:39:43.535Z,1.35
2023-01-19T08:42:15.372Z,1.37
2023-01-19T08:44:57.711Z,1.40
2023-01-19T08:47:30.233Z,1.43
2023-01-19T08:50:02.015Z,1.46
2023-01-19T08:52:33.715Z,1.50
2023-01-19T08:55:06.216Z,1.52
2023-01-19T08:57:37.952Z,1.55
2023-01-19T09:00:11.660Z,1.59
2023-01-19T09:02:43.563Z,1.64
2023-01-19T09:05:15.507Z,1.70
2023-01-19T09:07:48.058Z,1.76
2023-01-19T09:10:20.657Z,1.81
2023-01-19T09:12:52.547Z,1.85
2023-01-19T09:15:24.347Z,1.86
2023-01-19T09:17:56.076Z,1.89
2023-01-19T09:20:28.570Z,1.89
2023-01-19T09:23:00.685Z,1.88
2023-01-19T09:25:32.780Z,1.90
2023-01-19T09:28:05.421Z,1.92
2023-01-19T09:30:37.730Z,1.94
2023-01-19T09:33:11.679Z,1.92
2023-01-19T09:35:45.234Z,1.93
2023-01-19T09:38:16.783Z,1.94
2023-01-19T09:40:52.471Z,1.94
2023-01-19T09:43:42.113Z,1.95
2023-01-19T09:46:18.567Z,1.93
2023-01-19T09:48:53.579Z,1.96
2023-01-19T09:51:27.449Z,1.97
2023-01-19T09:54:07.610Z,1.96
2023-01-19T09:56:39.799Z,1.95
2023-01-19T09:59:23.242Z,1.95
2023-01-19T10:02:21.748Z,1.93
2023-01-19T10:05:01.573Z,1.93
2023-01-19T10:07:53.269Z,1.94
2023-01-19T10:10:28.217Z,1.92
2023-01-19T10:13:15.157Z,1.91
2023-01-19T10:15:57.249Z,1.92
2023-01-19T10:18:35.775Z,1.91
2023-01-19T10:21:13.868Z,1.88
2023-01-19T10:23:49.216Z,1.88
2023-01-19T10:26:24.240Z,1.86
2023-01-19T10:29:00.463Z,1.85
2023-01-19T10:31:33.856Z,1.86
2023-01-19T10:34:04.575Z,1.85
2023-01-19T10:36:40.370Z,1.86
2023-01-19T10:39:16.464Z,1.87
2023-01-19T10:41:52.401Z,1.86
2023-01-19T10:44:28.993Z,1.88
2023-01-19T10:47:02.308Z,1.91
2023-01-19T10:49:42.759Z,1.91
2023-01-19T10:52:26.992Z,1.89
2023-01-19T10:55:00.166Z,1.87
2023-01-19T10:57:36.591Z,1.88
2023-01-19T11:00:29.340Z,1.87
2023-01-19T11:03:01.579Z,1.87
2023-01-19T11:05:35.192Z,1.88
2023-01-19T11:08:25.216Z,1.89
2023-01-19T11:11:02.266Z,1.92
2023-01-19T11:13:34.812Z,1.94
2023-01-19T11:16:16.609Z,1.95
2023-01-19T11:18:52.569Z,1.95
2023-01-19T11:21:27.744Z,1.95
2023-01-19T11:24:01.660Z,1.94
2023-01-19T11:26:40.793Z,1.95
2023-01-19T11:29:20.191Z,1.95
2023-01-19T11:31:53.209Z,1.94
2023-01-19T11:34:34.100Z,1.93
2023-01-19T11:37:22.633Z,1.93
2023-01-19T11:39:57.259Z,1.91
2023-01-19T11:42:33.410Z,1.93
2023-01-19T11:45:15.113Z,1.93
2023-01-19T11:47:49.635Z,1.92
2023-01-19T11:50:29.417Z,1.88
2023-01-19T11:53:07.335Z,1.86
2023-01-19T11:55:44.919Z,1.85
2023-01-19T11:58:18.967Z,1.87
2023-01-19T12:00:54.516Z,1.86
2023-01-19T12:03:31.184Z,1.86
2023-01-19T12:06:05.578Z,1.86
2023-01-19T12:08:40.951Z,1.86
2023-01-19T12:11:21.176Z,1.85
2023-01-19T12:13:54.916Z,1.85
2023-01-19T12:16:30.533Z,1.84
2023-01-19T12:19:06.078Z,1.81
2023-01-19T12:21:38.730Z,1.80
2023-01-19T12:24:17.856Z,1.80
2023-01-19T12:26:55.361Z,1.80
2023-01-19T12:29:31.137Z,1.79
2023-01-19T12:32:20.212Z,1.82
2023-01-19T12:34:52.754Z,1.83
2023-01-19T12:37:36.937Z,1.86
2023-01-19T12:40:25.963Z,1.89
2023-01-19T12:43:02.407Z,1.88
2023-01-19T12:45:35.892Z,1.87
2023-01-19T12:48:24.660Z,1.91
2023-01-19T12:50:56.439Z,1.91
2023-01-19T12:53:30.495Z,1.93
2023-01-19T12:56:08.678Z,1.90
2023-01-19T12:58:40.414Z,1.91
2023-01-19T13:01:21.696Z,1.87
2023-01-19T13:04:06.748Z,1.86
2023-01-19T13:07:10.543Z,1.87
2023-01-19T13:09:43.188Z,1.86
2023-01-19T13:12:26.076Z,1.85
2023-01-19T13:15:34.823Z,1.83
2023-01-19T13:18:09.178Z,1.77
2023-01-19T13:20:50.892Z,1.75
2023-01-19T13:23:26.089Z,1.73
2023-01-19T13:26:04.510Z,1.70
2023-01-19T13:28:41.759Z,1.68
2023-01-19T13:31:15.094Z,1.66
2023-01-19T13:33:53.122Z,1.67
2023-01-19T13:36:31.528Z,1.67
2023-01-19T13:39:05.843Z,1.69
2023-01-19T13:41:41.280Z,1.67
2023-01-19T13:44:19.574Z,1.65
2023-01-19T13:46:52.481Z,1.64
2023-01-19T13:49:30.629Z,1.63
2023-01-19T13:52:13.597Z,1.61
2023-01-19T13:54:53.505Z,1.60
2023-01-19T13:57:28.019Z,1.56
2023-01-19T14:00:17.684Z,1.54
2023-01-19T14:03:01.203Z,1.53
2023-01-19T14:05:35.897Z,1.49
2023-01-19T14:08:17.814Z,1.48
2023-01-19T14:11:02.028Z,1.46
2023-01-19T14:13:37.383Z,1.45
2023-01-19T14:16:18.479Z,1.40
2023-01-19T14:19:02.321Z,1.38
2023-01-19T14:21:39.975Z,1.35
2023-01-19T14:24:17.722Z,1.30
2023-01-19T14:26:52.722Z,1.29
2023-01-19T14:29:31.823Z,1.26
2023-01-19T14:32:19.353Z,1.24
2023-01-19T14:34:53.794Z,1.25
2023-01-19T14:37:28.157Z,1.22
2023-01-19T14:40:05.633Z,1.21
2023-01-19T14:42:39.764Z,1.18
2023-01-19T14:45:22.217Z,1.17
2023-01-19T14:47:59.718Z,1.20
2023-01-19T14:50:35.119Z,1.17
2023-01-19T14:53:15.266Z,1.14
2023-01-19T14:55:49.996Z,1.12
2023-01-19T14:58:23.638Z,1.12
2023-01-19T15:00:56.396Z,1.09
2023-01-19T15:03:43.588Z,1.07
2023-01-19T15:06:19.752Z,1.06
2023-01-19T15:08:53.245Z,1.04
2023-01-19T15:11:25.639Z,1.02
2023-01-19T15:13:57.334Z,1.01
2023-01-19T15:16:32.843Z,1.00
2023-01-19T15:19:05.033Z,1.00
2023-01-19T15:21:37.545Z,1.00
2023-01-19T15:24:09.640Z,0.98
2023-01-19T15:26:43.839Z,0.97
2023-01-19T15:29:24.582Z,0.97
2023-01-19T15:31:56.384Z,0.95
2023-01-19T15:34:28.092Z,0.94
2023-01-19T15:37:00.071Z,0.92
2023-01-19T15:39:32.175Z,0.90
2023-01-19T15:42:04.093Z,0.88
2023-01-19T15:44:35.778Z,0.88
2023-01-19T15:47:07.633Z,0.87
2023-01-19T15:49:39.319Z,0.89
2023-01-19T15:52:10.985Z,0.86
2023-01-19T15:54:42.705Z,0.85
2023-01-19T15:57:14.414Z,0.84
2023-01-19T16:03:42.379Z,0.84
2023-01-19T16:06:16.185Z,0.84
2023-01-19T16:08:48.032Z,0.83
2023-01-19T16:11:19.743Z,0.83
2023-01-19T16:13:51.461Z,0.83
2023-01-19T16:16:25.172Z,0.85
2023-01-19T16:18:57.509Z,0.85
2023-01-19T16:21:29.745Z,0.85
2023-01-19T16:24:01.470Z,0.86
2023-01-19T16:26:34.817Z,0.85
2023-01-19T16:29:09.807Z,0.86
2023-01-19T16:31:43.236Z,0.87
2023-01-19T16:34:13.578Z,0.87
2023-01-19T16:36:45.814Z,0.86
2023-01-19T16:39:18.230Z,0.86
2023-01-19T16:41:49.924Z,0.86
2023-01-19T16:44:21.588Z,0.87
2023-01-19T16:46:53.371Z,0.89
2023-01-19T16:49:28.502Z,0.90
2023-01-19T16:52:00.402Z,0.92
2023-01-19T16:54:32.846Z,0.93
2023-01-19T16:57:04.582Z,0.93
2023-01-19T16:59:36.359Z,0.92
2023-01-19T17:02:08.517Z,0.90
2023-01-19T17:04:40.274Z,0.91
2023-01-19T17:07:11.972Z,0.94
2023-01-19T17:09:43.819Z,0.93
2023-01-19T17:12:15.749Z,0.94
2023-01-19T17:14:48.411Z,0.94
2023-01-19T17:17:20.250Z,0.96
2023-01-19T17:19:51.946Z,0.96
2023-01-19T17:22:23.808Z,0.97
2023-01-19T17:24:55.478Z,0.98
2023-01-19T17:27:27.341Z,1.03
2023-01-19T17:29:59.199Z,1.03
2023-01-19T17:32:32.093Z,1.03
2023-01-19T17:35:03.856Z,1.05
2023-01-19T17:37:35.607Z,1.05
2023-01-19T17:40:09.859Z,1.05
2023-01-19T17:42:43.148Z,1.03
2023-01-19T17:45:15.160Z,1.05
2023-01-19T17:47:48.745Z,1.04
2023-01-19T17:50:20.678Z,1.02
2023-01-19T17:52:52.721Z,1.01
2023-01-19T17:55:24.442Z,1.01
2023-01-19T17:57:56.301Z,1.00
2023-01-19T18:00:28.901Z,1.00
2023-01-19T18:03:00.892Z,1.01
2023-01-19T18:05:32.649Z,1.02
2023-01-19T18:08:04.570Z,1.04
2023-01-19T18:10:36.641Z,1.05
2023-01-19T18:13:08.327Z,1.05
2023-01-19T18:15:40.380Z,1.04
2023-01-19T18:18:12.069Z,1.02
2023-01-19T18:20:44.531Z,1.01
2023-01-19T18:23:16.416Z,1.01
2023-01-19T18:25:48.570Z,1.01
2023-01-19T18:28:20.301Z,1.01
2023-01-19T18:30:52.072Z,1.00
2023-01-19T18:33:24.456Z,1.01
2023-01-19T18:35:56.198Z,1.03
2023-01-19T18:38:28.159Z,1.03
2023-01-19T18:41:07.537Z,1.02
2023-01-19T18:43:39.939Z,0.99
2023-01-19T18:46:12.433Z,0.97
2023-01-19T18:48:44.835Z,0.95
2023-01-19T18:51:17.864Z,0.96
2023-01-19T18:53:49.749Z,0.96
2023-01-19T18:56:21.696Z,0.96
2023-01-19T18:58:53.968Z,0.95
2023-01-19T19:01:30.293Z,0.94
2023-01-19T19:04:04.422Z,0.92
2023-01-19T19:06:36.529Z,0.94
2023-01-19T19:09:08.430Z,0.94
2023-01-19T19:11:40.292Z,0.94
2023-01-19T19:14:12.471Z,0.97
2023-01-19T19:16:44.298Z,0.97
2023-01-19T19:19:16.460Z,0.96
2023-01-19T19:21:48.956Z,0.93
2023-01-19T19:24:20.739Z,0.91
2023-01-19T19:26:52.679Z,0.89
2023-01-19T19:29:24.468Z,0.86
2023-01-19T19:31:56.767Z,0.83
2023-01-19T19:34:29.268Z,0.81
2023-01-19T19:37:01.529Z,0.78
2023-01-19T19:39:33.869Z,0.76
2023-01-19T19:42:05.647Z,0.75
2023-01-19T19:44:37.462Z,0.72
2023-01-19T19:47:09.335Z,0.68
2023-01-19T19:49:41.135Z,0.66
2023-01-19T19:52:12.991Z,0.66
2023-01-19T19:54:45.585Z,0.65
2023-01-19T19:57:17.558Z,0.65
2023-01-19T19:59:49.785Z,0.66
2023-01-19T20:02:22.082Z,0.65
2023-01-19T20:04:54.072Z,0.65
2023-01-19T20:07:26.294Z,0.65
2023-01-19T20:09:58.364Z,0.66
2023-01-19T20:12:30.202Z,0.64
2023-01-19T20:15:02.278Z,0.63
2023-01-19T20:17:34.163Z,0.62
2023-01-19T20:20:07.093Z,0.62
2023-01-19T20:22:38.792Z,0.61
2023-01-19T20:25:11.672Z,0.60
2023-01-19T20:27:44.987Z,0.62
2023-01-19T20:30:17.632Z,0.63
2023-01-19T20:32:51.288Z,0.61
2023-01-19T20:35:23.407Z,0.58
2023-01-19T20:37:55.206Z,0.58
2023-01-19T20:40:27.336Z,0.58
2023-01-19T20:42:59.070Z,0.55
2023-01-19T20:45:31.089Z,0.54
2023-01-19T20:48:02.982Z,0.54
2023-01-19T20:50:34.718Z,0.53
2023-01-19T20:53:06.436Z,0.54
2023-01-19T20:55:38.350Z,0.57
2023-01-19T20:58:10.374Z,0.57
2023-01-19T21:00:42.525Z,0.56
2023-01-19T21:03:14.478Z,0.58
2023-01-19T21:05:49.453Z,0.59
2023-01-19T21:08:21.173Z,0.60
2023-01-19T21:10:56.275Z,0.63
2023-01-19T21:13:28.192Z,0.62
2023-01-19T21:16:00.827Z,0.63
2023-01-19T21:18:32.603Z,0.64
2023-01-19T21:21:04.702Z,0.66
2023-01-19T21:23:36.664Z,0.66
2023-01-19T21:26:08.640Z,0.65
2023-01-19T21:28:40.519Z,0.67
2023-01-19T21:31:14.737Z,0.68
2023-01-19T21:33:46.493Z,0.70
2023-01-19T21:36:18.222Z,0.71
2023-01-19T21:38:51.437Z,0.68
2023-01-19T21:41:22.120Z,0.69
2023-01-19T21:43:53.809Z,0.68
2023-01-19T21:46:29.271Z,0.69
2023-01-19T21:49:02.673Z,0.70
2023-01-19T21:51:37.367Z,0.71
2023-01-19T21:54:09.535Z,0.70
2023-01-19T21:56:43.224Z,0.66
2023-01-19T21:59:18.508Z,0.67
2023-01-19T22:01:51.498Z,0.66
2023-01-19T22:04:23.744Z,0.69
2023-01-19T22:06:55.486Z,0.70
2023-01-19T22:09:27.210Z,0.71
2023-01-19T22:11:59.804Z,0.73
2023-01-19T22:14:32.048Z,0.76
2023-01-19T22:17:04.798Z,0.80
2023-01-19T22:19:36.509Z,0.79
2023-01-19T22:22:08.252Z,0.76
2023-01-19T22:24:40.065Z,0.77
2023-01-19T22:27:11.806Z,0.78
2023-01-19T22:29:43.511Z,0.78
2023-01-19T22:32:15.321Z,0.78
2023-01-19T22:34:48.057Z,0.80
2023-01-19T22:37:19.714Z,0.80
2023-01-19T22:39:51.453Z,0.78
2023-01-19T22:42:23.113Z,0.77
2023-01-19T22:44:54.832Z,0.76
2023-01-19T22:47:26.687Z,0.77
2023-01-19T22:49:58.400Z,0.77
2023-01-19T22:52:30.126Z,0.77
2023-01-19T22:55:02.010Z,0.79
2023-01-19T22:57:36.749Z,0.77
2023-01-19T23:00:11.040Z,0.76
2023-01-19T23:02:42.726Z,0.77
2023-01-19T23:05:14.883Z,0.75
2023-01-19T23:07:46.980Z,0.74
2023-01-19T23:10:19.325Z,0.73
2023-01-19T23:12:51.036Z,0.73
2023-01-19T23:15:22.726Z,0.73
2023-01-19T23:17:54.658Z,0.70
2023-01-19T23:20:26.754Z,0.72
2023-01-19T23:22:58.442Z,0.71
2023-01-19T23:25:31.991Z,0.70
2023-01-19T23:28:02.121Z,0.69
2023-01-19T23:30:33.835Z,0.65
2023-01-19T23:33:05.884Z,0.62
2023-01-19T23:35:38.081Z,0.61
2023-01-19T23:38:09.755Z,0.58
